Time;durP1;ratioP1;P1;durP2;ratioP2;P2;SDS_P1;SDS_P2;PMS_P1;PMS_P2;Temp;Humidity;BMP_temperature;BMP_pressure;BME280_temperature;BME280_humidity;BME280_pressure;Samples;Min_cycle;Max_cycle;Signal;HPM_P1;HPM_P2
2022/08/26 00:01:12;;;;;;;27.50;20.33;;;20.90;99.90;;;;;;5072413;28;20372;-74
2022/08/26 00:03:38;;;;;;;26.15;20.55;;;20.90;99.90;;;;;;5081107;28;20083;-73
2022/08/26 00:06:05;;;;;;;23.27;18.85;;;20.90;99.90;;;;;;5080730;28;20064;-74
2022/08/26 00:08:30;;;;;;;30.40;21.10;;;20.90;99.90;;;;;;5067738;28;20052;-73
2022/08/26 00:10:56;;;;;;;31.27;21.88;;;20.90;99.90;;;;;;5081330;28;20040;-74
2022/08/26 00:13:21;;;;;;;30.13;21.15;;;20.90;99.90;;;;;;5080919;28;20052;-75
2022/08/26 00:15:49;;;;;;;35.97;21.58;;;20.90;99.90;;;;;;5073286;28;20048;-74
2022/08/26 00:18:14;;;;;;;26.45;20.52;;;20.80;99.90;;;;;;5074046;28;20377;-74
2022/08/26 00:20:40;;;;;;;29.45;21.35;;;20.80;99.90;;;;;;5067841;28;20036;-74
2022/08/26 00:23:06;;;;;;;26.35;19.60;;;20.70;99.90;;;;;;5081362;28;20361;-74
2022/08/26 00:25:32;;;;;;;28.17;21.05;;;20.70;99.90;;;;;;5080663;28;20337;-74
2022/08/26 00:27:57;;;;;;;27.60;20.27;;;20.60;99.90;;;;;;5063351;28;20156;-74
2022/08/26 00:30:26;;;;;;;27.60;20.52;;;20.60;99.90;;;;;;5080822;28;20041;-74
2022/08/26 00:32:53;;;;;;;31.88;21.40;;;20.60;99.90;;;;;;5066660;28;20041;-74
2022/08/26 00:35:19;;;;;;;30.33;22.30;;;20.50;99.90;;;;;;5068935;28;20098;-73
2022/08/26 00:37:45;;;;;;;30.45;22.27;;;20.50;99.90;;;;;;5081255;28;20059;-74
2022/08/26 00:40:16;;;;;;;28.17;21.58;;;20.40;99.90;;;;;;5080868;28;20123;-73
2022/08/26 00:42:43;;;;;;;24.75;16.95;;;20.40;99.90;;;;;;5080710;28;20154;-73
2022/08/26 00:45:09;;;;;;;31.42;20.83;;;20.40;99.90;;;;;;5080646;28;20045;-74
2022/08/26 00:47:44;;;;;;;32.15;22.20;;;20.40;99.90;;;;;;5080811;28;20127;-74
2022/08/26 00:50:15;;;;;;;33.30;22.38;;;20.40;99.90;;;;;;5049513;28;20048;-74
2022/08/26 00:52:41;;;;;;;29.30;20.77;;;20.40;99.90;;;;;;5059048;28;20381;-73
2022/08/26 00:55:14;;;;;;;24.95;18.67;;;20.50;99.90;;;;;;5062937;28;20052;-74
2022/08/26 00:57:41;;;;;;;36.08;21.05;;;20.60;99.90;;;;;;5080544;28;20044;-73
2022/08/26 01:00:13;;;;;;;27.83;17.50;;;20.60;99.90;;;;;;5079277;28;20048;-74
2022/08/26 01:02:39;;;;;;;33.20;19.65;;;20.60;99.90;;;;;;5077288;28;20149;-74
2022/08/26 01:05:08;;;;;;;27.15;19.45;;;20.60;99.90;;;;;;5073906;28;20044;-74
2022/08/26 01:07:34;;;;;;;25.92;18.73;;;20.60;99.90;;;;;;5071860;28;20041;-74
2022/08/26 01:10:03;;;;;;;29.17;18.40;;;20.60;99.90;;;;;;5069635;28;20453;-74
2022/08/26 01:12:34;;;;;;;29.20;17.75;;;20.60;99.90;;;;;;5077282;28;20044;-74
2022/08/26 01:15:01;;;;;;;29.88;17.83;;;20.60;99.90;;;;;;5076977;28;20036;-73
2022/08/26 01:17:26;;;;;;;31.20;17.67;;;20.60;99.90;;;;;;5077706;28;20337;-74
2022/08/26 01:20:08;;;;;;;25.25;15.93;;;20.60;99.90;;;;;;5058206;28;20090;-74
2022/08/26 01:22:55;;;;;;;29.38;16.75;;;20.60;99.90;;;;;;5061033;28;20037;-73
2022/08/26 01:25:24;;;;;;;30.75;15.60;;;20.70;99.90;;;;;;5074094;28;20048;-74
2022/08/26 01:27:50;;;;;;;30.58;18.15;;;20.70;99.90;;;;;;5071709;28;20052;-74
2022/08/26 01:30:17;;;;;;;25.65;16.60;;;20.70;99.90;;;;;;5074635;28;20458;-74
2022/08/26 01:32:44;;;;;;;29.73;17.23;;;20.70;99.90;;;;;;5077056;28;20095;-75
2022/08/26 01:35:10;;;;;;;28.90;15.43;;;20.70;99.90;;;;;;5076747;28;20036;-74
2022/08/26 01:37:37;;;;;;;32.42;16.33;;;20.70;99.90;;;;;;5076767;28;20037;-74
2022/08/26 01:40:06;;;;;;;31.10;16.13;;;20.70;99.90;;;;;;5076471;28;20040;-73
2022/08/26 01:42:33;;;;;;;31.67;16.67;;;20.70;99.90;;;;;;5054239;28;20041;-75
2022/08/26 01:45:06;;;;;;;25.05;16.23;;;20.80;99.90;;;;;;5075363;28;20044;-73
2022/08/26 01:47:33;;;;;;;;;;;20.70;99.90;;;;;;5060048;28;20051;-74
2022/08/26 01:50:02;;;;;;;23.95;14.63;;;20.70;99.90;;;;;;5076690;28;19920;-73
2022/08/26 01:52:30;;;;;;;25.10;14.43;;;20.70;99.90;;;;;;5076424;28;20449;-74
2022/08/26 01:54:57;;;;;;;31.73;16.02;;;20.70;99.90;;;;;;5076433;28;20047;-74
2022/08/26 01:57:24;;;;;;;32.55;16.45;;;20.60;99.90;;;;;;5042659;28;20045;-73
2022/08/26 01:59:51;;;;;;;31.17;15.43;;;20.70;99.90;;;;;;5051768;28;20068;-74
2022/08/26 02:02:16;;;;;;;28.60;15.30;;;20.60;99.90;;;;;;5076355;28;20373;-73
2022/08/26 02:04:55;;;;;;;28.65;16.10;;;20.60;99.90;;;;;;5076180;28;20040;-74
2022/08/26 02:07:23;;;;;;;23.77;16.25;;;20.60;99.90;;;;;;5072435;28;20033;-74
2022/08/26 02:09:48;;;;;;;31.27;16.27;;;20.50;99.90;;;;;;5066390;28;20488;-74
2022/08/26 02:12:17;;;;;;;26.55;15.20;;;20.50;99.90;;;;;;5073758;28;20036;-74
2022/08/26 02:14:48;;;;;;;26.45;16.08;;;20.60;99.90;;;;;;5067088;28;20045;-73
2022/08/26 02:17:15;;;;;;;27.55;14.68;;;20.60;99.90;;;;;;5076171;28;20422;-74
2022/08/26 02:19:45;;;;;;;38.10;17.15;;;20.60;99.90;;;;;;5075846;28;20356;-74
2022/08/26 02:22:16;;;;;;;22.80;14.32;;;20.60;99.90;;;;;;5075864;28;20036;-74
2022/08/26 02:24:53;;;;;;;30.23;15.43;;;20.60;99.90;;;;;;5075883;28;20055;-74
2022/08/26 02:27:27;;;;;;;26.70;15.80;;;20.60;99.90;;;;;;5071006;28;20037;-74
2022/08/26 02:30:01;;;;;;;27.48;14.43;;;20.60;99.90;;;;;;5054018;28;20056;-73
2022/08/26 02:32:27;;;;;;;26.75;15.02;;;20.60;99.90;;;;;;5075636;28;20389;-74
2022/08/26 02:34:52;;;;;;;25.70;15.25;;;20.60;99.90;;;;;;5075608;28;20044;-74
2022/08/26 02:37:18;;;;;;;30.58;16.35;;;20.60;99.90;;;;;;5075966;28;20462;-73
2022/08/26 02:39:44;;;;;;;27.27;15.18;;;20.60;99.90;;;;;;5075774;28;20111;-73
2022/08/26 02:42:10;;;;;;;24.80;14.77;;;20.60;99.90;;;;;;5069476;28;20048;-74
2022/08/26 02:44:36;;;;;;;30.95;14.38;;;20.60;99.90;;;;;;5072062;28;20040;-73
2022/08/26 02:47:02;;;;;;;27.98;15.25;;;20.60;99.90;;;;;;5075180;28;20081;-73
2022/08/26 02:49:29;;;;;;;25.00;15.13;;;20.60;99.90;;;;;;5075504;28;20410;-73
2022/08/26 02:51:55;;;;;;;31.42;15.57;;;20.60;99.90;;;;;;5075392;28;20037;-73
2022/08/26 02:54:21;;;;;;;36.25;16.42;;;20.60;99.90;;;;;;5057509;28;20041;-74
2022/08/26 02:56:47;;;;;;;39.47;16.42;;;20.60;99.90;;;;;;5070639;28;20442;-74
2022/08/26 02:59:12;;;;;;;34.63;16.40;;;20.70;99.90;;;;;;5068486;28;20056;-74
2022/08/26 03:01:39;;;;;;;33.08;15.88;;;20.60;99.90;;;;;;5075088;28;20451;-73
2022/08/26 03:04:09;;;;;;;27.60;16.30;;;20.60;99.90;;;;;;5057502;28;20091;-74
2022/08/26 03:06:35;;;;;;;27.00;15.35;;;20.70;99.90;;;;;;5075201;28;20449;-73
2022/08/26 03:09:02;;;;;;;28.98;16.02;;;20.60;99.90;;;;;;5061400;28;20048;-73
2022/08/26 03:11:29;;;;;;;27.98;15.50;;;20.60;99.90;;;;;;5075581;28;20412;-74
2022/08/26 03:13:55;;;;;;;30.17;16.20;;;20.70;99.90;;;;;;5072301;28;20048;-74
2022/08/26 03:16:21;;;;;;;29.08;15.68;;;20.60;99.90;;;;;;5075262;28;20046;-74
2022/08/26 03:18:46;;;;;;;24.63;13.60;;;20.60;99.90;;;;;;5057143;28;20191;-74
2022/08/26 03:21:16;;;;;;;30.02;15.40;;;20.70;99.90;;;;;;5074889;28;20053;-72
2022/08/26 03:23:43;;;;;;;27.27;15.52;;;20.60;99.90;;;;;;5074419;28;20091;-74
2022/08/26 03:26:11;;;;;;;29.63;14.18;;;20.60;99.90;;;;;;5075008;28;20044;-75
2022/08/26 03:30:38;;;;;;;27.67;15.18;;;20.60;99.90;;;;;;5073437;28;20445;-73
2022/08/26 03:31:23;;;;;;;25.65;15.23;;;20.70;99.90;;;;;;5073835;28;20053;-73
2022/08/26 03:33:49;;;;;;;22.38;13.82;;;20.70;99.90;;;;;;5075103;28;20037;-73
2022/08/26 03:36:14;;;;;;;26.35;13.77;;;20.70;99.90;;;;;;5074890;28;20047;-73
2022/08/26 03:38:40;;;;;;;30.15;13.55;;;20.70;99.90;;;;;;5075000;28;20206;-73
2022/08/26 03:41:09;;;;;;;34.80;13.63;;;20.70;99.90;;;;;;5073830;28;20048;-74
2022/08/26 03:43:34;;;;;;;22.42;13.10;;;20.70;99.90;;;;;;5051050;28;20105;-73
2022/08/26 03:46:05;;;;;;;21.67;12.15;;;20.70;99.90;;;;;;5074417;28;20048;-73
2022/08/26 03:48:30;;;;;;;26.35;12.13;;;20.60;99.90;;;;;;5074871;28;20116;-73
2022/08/26 03:50:56;;;;;;;20.65;12.32;;;20.60;99.90;;;;;;5056983;28;20182;-74
2022/08/26 03:53:22;;;;;;;24.67;11.00;;;20.70;99.90;;;;;;5074494;28;20041;-74
2022/08/26 03:55:48;;;;;;;26.00;12.00;;;20.60;99.90;;;;;;5074590;28;20049;-74
2022/08/26 03:58:13;;;;;;;20.55;11.05;;;20.60;99.90;;;;;;5062398;28;20063;-74
2022/08/26 04:00:39;;;;;;;27.25;12.27;;;20.60;99.90;;;;;;5074346;28;20109;-73
2022/08/26 04:03:05;;;;;;;21.88;10.50;;;20.60;99.90;;;;;;5074591;28;20476;-74
2022/08/26 04:05:30;;;;;;;23.77;11.05;;;20.60;99.90;;;;;;5074365;28;20498;-74
2022/08/26 04:07:56;;;;;;;20.75;10.60;;;20.60;99.90;;;;;;5065848;28;20041;-73
2022/08/26 04:10:23;;;;;;;20.35;10.85;;;20.60;99.90;;;;;;5069430;28;20068;-73
2022/08/26 04:12:50;;;;;;;21.45;10.63;;;20.60;99.90;;;;;;5063912;28;20124;-73
2022/08/26 04:15:20;;;;;;;22.38;10.70;;;20.60;99.90;;;;;;5074177;28;20040;-74
2022/08/26 04:17:46;;;;;;;16.95;9.88;;;20.50;99.90;;;;;;5074620;28;20097;-73
2022/08/26 04:20:12;;;;;;;16.25;10.13;;;20.50;99.90;;;;;;5057880;28;20048;-72
2022/08/26 04:22:41;;;;;;;24.40;10.18;;;20.60;99.90;;;;;;5064264;28;20056;-74
2022/08/26 04:25:07;;;;;;;22.95;10.32;;;20.60;99.90;;;;;;5053580;28;20455;-73
2022/08/26 04:27:33;;;;;;;20.83;10.02;;;20.50;99.90;;;;;;5064416;28;20048;-73
2022/08/26 04:29:59;;;;;;;27.85;10.75;;;20.60;99.90;;;;;;5074483;28;20445;-72
2022/08/26 04:32:25;;;;;;;17.58;9.57;;;20.60;99.90;;;;;;5040499;28;20052;-73
2022/08/26 04:34:50;;;;;;;18.17;9.40;;;20.60;99.90;;;;;;5054211;28;20037;-73
2022/08/26 04:37:16;;;;;;;22.95;10.32;;;20.60;99.90;;;;;;5057408;28;20411;-74
2022/08/26 04:39:41;;;;;;;15.55;8.10;;;20.60;99.90;;;;;;5057996;28;20464;-73
2022/08/26 04:42:07;;;;;;;20.30;8.88;;;20.60;99.90;;;;;;5057993;28;20141;-73
2022/08/26 04:44:35;;;;;;;18.65;8.95;;;20.60;99.90;;;;;;5074234;28;20041;-73
2022/08/26 04:47:00;;;;;;;19.30;9.20;;;20.60;99.90;;;;;;5077798;28;20136;-73
2022/08/26 04:49:26;;;;;;;21.73;8.68;;;20.50;99.90;;;;;;5077995;28;20120;-73
2022/08/26 04:51:52;;;;;;;18.35;8.27;;;20.50;99.90;;;;;;5077834;28;20048;-73
2022/08/26 04:54:18;;;;;;;19.85;8.65;;;20.50;99.90;;;;;;5077973;28;20090;-73
2022/08/26 04:56:46;;;;;;;18.70;9.35;;;20.50;99.90;;;;;;5077658;28;20040;-73
2022/08/26 04:59:14;;;;;;;16.13;9.05;;;20.50;99.90;;;;;;5059282;28;20041;-72
2022/08/26 05:01:49;;;;;;;16.75;8.45;;;20.60;99.90;;;;;;5057210;28;20136;-72
2022/08/26 05:04:16;;;;;;;17.80;8.50;;;20.60;99.90;;;;;;5040104;28;20072;-72
2022/08/26 05:06:42;;;;;;;19.20;9.15;;;20.60;99.90;;;;;;5057483;28;20099;-72
2022/08/26 05:09:08;;;;;;;19.38;9.05;;;20.60;99.90;;;;;;5040214;28;20053;-72
2022/08/26 05:11:34;;;;;;;23.58;9.77;;;20.50;99.90;;;;;;5057275;28;20415;-72
2022/08/26 05:14:00;;;;;;;16.35;8.73;;;20.60;99.90;;;;;;5057438;28;20037;-72
2022/08/26 05:16:26;;;;;;;18.85;9.52;;;20.50;99.90;;;;;;5057695;28;20041;-72
2022/08/26 05:18:53;;;;;;;15.45;8.77;;;20.50;99.90;;;;;;5057840;28;20052;-71
2022/08/26 05:21:22;;;;;;;21.15;10.40;;;20.50;99.90;;;;;;5056905;28;20037;-69
2022/08/26 05:23:50;;;;;;;18.77;10.00;;;20.50;99.90;;;;;;5054162;28;20525;-69
2022/08/26 05:26:17;;;;;;;22.50;10.73;;;20.50;99.90;;;;;;5055695;28;20041;-69
2022/08/26 05:28:42;;;;;;;18.25;9.23;;;20.50;99.90;;;;;;5056521;28;20049;-69
2022/08/26 05:31:14;;;;;;;21.73;9.25;;;20.50;99.90;;;;;;5056649;28;20453;-69
2022/08/26 05:33:40;;;;;;;28.75;10.02;;;20.50;99.90;;;;;;5056739;28;20368;-70
2022/08/26 05:36:09;;;;;;;19.08;9.85;;;20.60;99.90;;;;;;5039572;28;20049;-69
2022/08/26 05:38:34;;;;;;;16.48;9.70;;;20.50;99.90;;;;;;5056482;28;20041;-69
2022/08/26 05:41:00;;;;;;;20.77;10.32;;;20.60;99.90;;;;;;5055221;28;20041;-71
2022/08/26 05:43:25;;;;;;;21.70;9.82;;;20.60;99.90;;;;;;5056519;28;20045;-69
2022/08/26 05:45:51;;;;;;;23.80;9.88;;;20.60;99.90;;;;;;5056557;28;20029;-70
2022/08/26 05:48:19;;;;;;;18.48;9.57;;;20.50;99.90;;;;;;5055774;28;20110;-70
2022/08/26 05:50:47;;;;;;;20.30;9.57;;;20.60;99.90;;;;;;5056234;28;20477;-70
2022/08/26 05:53:16;;;;;;;20.90;8.52;;;20.60;99.90;;;;;;5056249;28;20393;-70
2022/08/26 05:55:52;;;;;;;19.83;9.05;;;20.60;99.90;;;;;;5056066;28;20049;-70
2022/08/26 05:58:20;;;;;;;20.58;8.65;;;20.70;99.90;;;;;;5036205;28;20057;-69
2022/08/26 06:00:56;;;;;;;19.92;9.23;;;20.70;99.90;;;;;;5036186;28;20421;-71
2022/08/26 06:03:22;;;;;;;16.38;8.35;;;20.70;99.90;;;;;;5032149;28;20045;-70
2022/08/26 06:05:48;;;;;;;18.98;9.23;;;20.70;99.90;;;;;;5035766;28;20049;-70
2022/08/26 06:08:14;;;;;;;14.60;8.40;;;20.80;99.90;;;;;;5036109;28;20091;-71
2022/08/26 06:10:49;;;;;;;13.88;8.32;;;20.80;99.90;;;;;;5037746;28;20457;-72
2022/08/26 06:13:17;;;;;;;18.10;9.10;;;20.70;99.90;;;;;;5055450;28;20045;-71
2022/08/26 06:15:47;;;;;;;19.20;9.00;;;20.80;99.90;;;;;;5055818;28;20131;-70
2022/08/26 06:18:14;;;;;;;17.48;8.20;;;20.80;99.90;;;;;;5055766;28;20044;-72
2022/08/26 06:20:44;;;;;;;16.65;7.85;;;20.80;99.90;;;;;;5055655;28;20041;-72
2022/08/26 06:25:55;;;;;;;24.20;8.05;;;21.10;99.90;;;;;;5054829;28;20049;-72
2022/08/26 06:28:22;;;;;;;16.13;7.57;;;21.20;99.90;;;;;;5055798;28;20049;-72
2022/08/26 06:30:47;;;;;;;15.70;7.05;;;21.30;99.90;;;;;;5038157;28;20115;-72
2022/08/26 06:33:13;;;;;;;12.90;6.85;;;21.40;99.90;;;;;;5055567;28;20461;-71
2022/08/26 06:35:41;;;;;;;17.25;6.32;;;21.40;99.90;;;;;;5055518;28;20068;-71
2022/08/26 06:38:08;;;;;;;16.48;6.82;;;21.40;99.90;;;;;;5055175;28;20045;-71
2022/08/26 06:40:44;;;;;;;15.38;6.05;;;21.40;99.90;;;;;;5037836;28;20110;-72
2022/08/26 06:43:10;;;;;;;14.75;6.35;;;21.30;99.90;;;;;;5055447;28;20053;-73
2022/08/26 06:45:37;;;;;;;18.27;6.00;;;21.40;99.90;;;;;;5054869;28;20468;-72
2022/08/26 06:48:04;;;;;;;13.45;6.00;;;21.50;99.90;;;;;;5055683;28;20178;-72
2022/08/26 06:50:29;;;;;;;18.27;5.95;;;21.50;99.90;;;;;;5055519;28;20149;-72
2022/08/26 06:52:55;;;;;;;13.60;5.80;;;21.60;99.90;;;;;;5054950;28;20084;-72
2022/08/26 06:55:20;;;;;;;14.38;5.25;;;21.60;99.90;;;;;;5054457;28;20356;-72
2022/08/26 06:57:46;;;;;;;12.88;5.45;;;21.70;99.90;;;;;;5053312;28;20056;-73
2022/08/26 07:00:14;;;;;;;12.60;6.88;;;21.70;99.90;;;;;;5051621;28;20053;-72
2022/08/26 07:02:39;;;;;;;16.10;5.90;;;21.70;99.90;;;;;;5054101;28;20116;-72
2022/08/26 07:05:05;;;;;;;14.70;5.85;;;21.80;99.90;;;;;;5053513;28;20422;-72
2022/08/26 07:07:32;;;;;;;12.63;5.57;;;21.70;99.90;;;;;;5053155;28;20111;-72
2022/08/26 07:09:58;;;;;;;14.63;5.57;;;21.70;99.90;;;;;;5054607;28;20475;-72
2022/08/26 07:12:25;;;;;;;13.57;5.55;;;21.80;99.90;;;;;;5054525;28;20053;-71
2022/08/26 07:14:51;;;;;;;14.90;5.35;;;21.70;99.90;;;;;;5055132;28;20049;-72
2022/08/26 07:17:17;;;;;;;12.43;5.05;;;21.80;99.90;;;;;;5055102;28;20040;-72
2022/08/26 07:19:43;;;;;;;13.30;5.47;;;21.80;99.90;;;;;;5054404;28;20128;-72
2022/08/26 07:22:09;;;;;;;16.15;5.20;;;21.80;99.90;;;;;;5054778;28;20123;-72
2022/08/26 07:24:37;;;;;;;15.35;5.50;;;21.90;99.90;;;;;;5036856;28;20353;-74
2022/08/26 07:27:05;;;;;;;14.32;5.47;;;21.90;99.90;;;;;;5054036;28;20132;-71
2022/08/26 07:29:32;;;;;;;17.25;6.28;;;21.90;99.90;;;;;;5053097;28;20049;-73
2022/08/26 07:31:58;;;;;;;11.75;5.72;;;21.80;99.90;;;;;;5053210;28;20063;-72
2022/08/26 07:34:24;;;;;;;18.38;6.10;;;21.80;99.90;;;;;;5054109;28;20120;-72
2022/08/26 07:36:50;;;;;;;16.65;5.78;;;21.70;99.90;;;;;;5053701;28;20087;-72
2022/08/26 07:39:16;;;;;;;12.55;5.80;;;21.70;99.90;;;;;;5054308;28;20048;-70
2022/08/26 07:41:45;;;;;;;17.60;5.90;;;21.70;99.90;;;;;;5053575;28;20445;-71
2022/08/26 07:44:14;;;;;;;11.00;5.35;;;21.60;99.90;;;;;;5053596;28;20040;-70
2022/08/26 07:46:40;;;;;;;13.88;5.15;;;21.60;99.90;;;;;;5054397;28;20515;-71
2022/08/26 07:49:06;;;;;;;12.23;5.50;;;21.60;99.90;;;;;;5054113;28;20090;-71
2022/08/26 07:51:32;;;;;;;14.05;4.32;;;21.70;99.90;;;;;;5037043;28;20465;-70
2022/08/26 07:53:58;;;;;;;10.25;4.47;;;21.80;99.90;;;;;;5054573;28;20049;-70
2022/08/26 07:56:24;;;;;;;12.00;4.05;;;21.80;99.90;;;;;;5053875;28;20464;-71
2022/08/26 07:58:51;;;;;;;12.10;3.97;;;22.00;99.90;;;;;;5067672;28;20460;-70
2022/08/26 08:01:18;;;;;;;10.95;3.70;;;22.00;99.90;;;;;;5074005;28;20048;-71
2022/08/26 08:03:43;;;;;;;12.38;3.40;;;22.00;99.90;;;;;;5074130;28;20048;-71
2022/08/26 08:06:09;;;;;;;8.98;3.13;;;21.90;99.90;;;;;;5074016;28;20049;-71
2022/08/26 08:08:34;;;;;;;10.77;3.40;;;21.90;99.90;;;;;;5074305;28;20044;-70
2022/08/26 08:11:01;;;;;;;11.55;3.50;;;21.90;99.90;;;;;;5064697;28;20045;-70
2022/08/26 08:13:28;;;;;;;12.63;3.50;;;21.90;99.90;;;;;;5058410;28;20376;-70
2022/08/26 08:15:53;;;;;;;11.15;4.43;;;21.80;99.90;;;;;;5058296;28;20045;-71
2022/08/26 08:18:19;;;;;;;10.30;3.38;;;21.80;99.90;;;;;;5058324;28;20118;-72
2022/08/26 08:20:45;;;;;;;7.82;2.90;;;21.90;99.90;;;;;;5058084;28;20033;-71
2022/08/26 08:23:11;;;;;;;7.80;2.72;;;22.00;99.90;;;;;;5057362;28;20041;-72
2022/08/26 08:25:36;;;;;;;10.07;2.92;;;22.10;99.90;;;;;;5057644;28;20049;-71
2022/08/26 08:28:02;;;;;;;11.85;2.70;;;22.20;99.90;;;;;;5057397;28;20040;-71
2022/08/26 08:30:28;;;;;;;11.80;3.17;;;22.20;99.90;;;;;;5058316;28;20045;-71
2022/08/26 08:32:54;;;;;;;9.27;2.40;;;22.10;99.90;;;;;;5055705;28;20075;-71
2022/08/26 08:35:21;;;;;;;5.07;2.40;;;22.00;99.90;;;;;;5062378;28;20380;-71
2022/08/26 08:37:52;;;;;;;7.50;2.05;;;22.00;99.90;;;;;;5057259;28;20045;-71
2022/08/26 08:40:20;;;;;;;8.77;2.30;;;22.00;99.90;;;;;;5057497;28;20049;-70
2022/08/26 08:42:57;;;;;;;10.00;2.58;;;22.00;99.90;;;;;;5056681;28;20045;-70
2022/08/26 08:45:40;;;;;;;10.80;2.33;;;22.00;99.90;;;;;;5039627;28;20060;-70
2022/08/26 08:48:20;;;;;;;8.05;2.28;;;21.90;99.90;;;;;;5057207;28;20060;-72
2022/08/26 08:50:53;;;;;;;8.52;2.00;;;21.90;99.90;;;;;;5070256;28;20053;-70
2022/08/26 08:53:30;;;;;;;9.73;3.33;;;21.90;99.90;;;;;;5057404;28;20041;-71
2022/08/26 08:56:13;;;;;;;11.93;3.15;;;22.00;99.90;;;;;;5056542;28;20045;-72
2022/08/26 08:59:01;;;;;;;12.27;2.28;;;22.00;99.90;;;;;;5069168;28;20069;-71
2022/08/26 09:01:38;;;;;;;7.53;1.85;;;22.00;99.90;;;;;;5051187;28;20045;-71
2022/08/26 09:04:31;;;;;;;10.32;2.47;;;22.10;99.90;;;;;;5057541;28;20462;-71
2022/08/26 09:06:59;;;;;;;10.88;2.10;;;22.20;99.90;;;;;;5043817;28;20041;-72
2022/08/26 09:09:35;;;;;;;8.82;3.38;;;22.20;99.90;;;;;;5039901;28;20037;-72
2022/08/26 09:12:01;;;;;;;8.63;1.63;;;22.20;99.90;;;;;;5056752;28;20476;-72
2022/08/26 09:14:27;;;;;;;10.38;2.53;;;22.20;99.90;;;;;;5039215;28;20049;-72
2022/08/26 09:17:14;;;;;;;6.65;1.63;;;22.20;99.90;;;;;;5056230;28;20045;-73
2022/08/26 09:19:46;;;;;;;5.75;1.60;;;22.20;99.90;;;;;;5048136;28;20033;-71
2022/08/26 09:22:36;;;;;;;3.65;1.65;;;22.10;99.90;;;;;;5055788;28;20430;-71
2022/08/26 09:25:06;;;;;;;8.32;2.10;;;22.10;99.90;;;;;;5056741;28;20032;-71
2022/08/26 09:27:50;;;;;;;5.93;1.80;;;22.10;99.90;;;;;;5056459;28;20095;-71
2022/08/26 09:30:36;;;;;;;8.98;1.95;;;22.00;99.90;;;;;;5056527;28;20059;-71
2022/08/26 09:33:08;;;;;;;10.10;2.00;;;21.90;99.90;;;;;;5055184;28;20126;-70
2022/08/26 09:35:37;;;;;;;9.05;2.03;;;21.90;99.90;;;;;;5038056;28;20053;-71
2022/08/26 09:38:32;;;;;;;6.35;1.90;;;21.90;99.90;;;;;;5056498;28;20044;-71
2022/08/26 09:41:18;;;;;;;9.68;2.30;;;21.90;99.90;;;;;;5055992;28;20052;-71
2022/08/26 09:44:06;;;;;;;7.18;1.80;;;21.90;99.90;;;;;;5056506;28;20124;-71
2022/08/26 09:46:32;;;;;;;8.95;2.50;;;21.90;99.90;;;;;;5039008;28;20077;-71
2022/08/26 09:49:22;;;;;;;7.68;1.98;;;22.00;99.90;;;;;;5049415;28;20087;-72
2022/08/26 09:52:04;;;;;;;9.93;2.30;;;22.10;99.90;;;;;;5038921;28;20071;-71
2022/08/26 09:54:30;;;;;;;7.95;1.88;;;22.10;99.90;;;;;;5056328;28;20377;-72
2022/08/26 09:57:23;;;;;;;8.68;1.63;;;22.10;99.90;;;;;;5056150;28;20044;-71
2022/08/26 09:59:49;;;;;;;8.10;1.67;;;22.20;99.90;;;;;;5038884;28;20088;-72
2022/08/26 10:02:28;;;;;;;8.43;2.50;;;22.20;99.90;;;;;;5056296;28;20087;-72
2022/08/26 10:04:56;;;;;;;8.18;2.15;;;22.30;99.90;;;;;;5046781;28;20045;-71
2022/08/26 10:07:48;;;;;;;9.63;2.90;;;22.30;99.90;;;;;;5055756;28;20124;-71
2022/08/26 10:10:33;;;;;;;9.75;2.13;;;22.30;99.90;;;;;;5036421;28;20049;-71
2022/08/26 10:13:11;;;;;;;8.20;1.65;;;22.40;99.90;;;;;;5020456;28;20052;-71
2022/08/26 10:16:15;;;;;;;8.73;1.65;;;22.50;99.90;;;;;;5057047;28;20095;-70
2022/08/26 10:19:08;;;;;;;9.10;2.00;;;22.60;99.90;;;;;;5000860;28;20465;-70
2022/08/26 10:21:53;;;;;;;6.13;1.80;;;22.70;99.90;;;;;;5054443;28;20045;-71
2022/08/26 10:24:26;;;;;;;8.85;1.90;;;22.90;99.90;;;;;;5043587;28;20132;-71
2022/08/26 10:26:59;;;;;;;;;;;23.10;99.90;;;;;;5056342;28;20048;-71
2022/08/26 10:29:36;;;;;;;5.65;1.77;;;23.20;99.90;;;;;;5036862;28;19920;-70
2022/08/26 10:32:19;;;;;;;5.78;1.50;;;23.40;99.90;;;;;;5055044;28;20119;-71
2022/08/26 10:34:45;;;;;;;6.95;1.55;;;23.40;99.90;;;;;;5017101;28;20045;-71
2022/08/26 10:37:21;;;;;;;7.78;2.25;;;23.30;99.90;;;;;;5045613;28;20041;-71
2022/08/26 10:40:14;;;;;;;7.25;2.33;;;23.20;99.90;;;;;;5040637;28;20052;-72
2022/08/26 10:42:57;;;;;;;12.77;1.73;;;23.10;99.90;;;;;;5040919;28;20107;-71
2022/08/26 10:45:26;;;;;;;6.35;1.40;;;23.10;99.90;;;;;;5034116;28;20041;-72
2022/08/26 10:48:05;;;;;;;8.80;1.77;;;22.90;99.90;;;;;;5044954;28;20041;-72
2022/08/26 10:50:43;;;;;;;8.68;2.25;;;22.90;99.90;;;;;;5043100;28;20120;-72
2022/08/26 10:53:12;;;;;;;7.50;1.50;;;22.80;99.90;;;;;;5040859;28;20350;-72
2022/08/26 10:55:41;;;;;;;9.65;2.83;;;22.70;99.90;;;;;;5049935;28;20190;-72
2022/08/26 10:58:28;;;;;;;7.20;2.13;;;22.60;99.90;;;;;;5061911;28;20052;-72
2022/08/26 11:01:41;;;;;;;6.85;1.83;;;22.50;99.90;;;;;;5074867;28;20088;-71
2022/08/26 11:04:13;;;;;;;6.68;2.20;;;22.30;99.90;;;;;;4998775;28;20053;-73
2022/08/26 11:06:39;;;;;;;8.32;2.05;;;22.40;99.90;;;;;;5056739;28;20098;-72
2022/08/26 11:09:07;;;;;;;6.65;2.42;;;22.40;99.90;;;;;;5063006;28;20064;-72
2022/08/26 11:11:39;;;;;;;7.05;1.63;;;22.40;99.90;;;;;;5074645;28;20178;-70
2022/08/26 11:14:08;;;;;;;10.93;1.67;;;22.50;99.90;;;;;;5074817;28;20127;-72
2022/08/26 11:16:43;;;;;;;4.97;1.33;;;22.50;99.90;;;;;;5072022;28;20052;-72
2022/08/26 11:19:32;;;;;;;5.80;1.27;;;22.60;99.90;;;;;;5074918;28;20048;-70
2022/08/26 11:22:10;;;;;;;5.03;1.95;;;22.70;99.90;;;;;;5071699;28;20066;-71
2022/08/26 11:24:52;;;;;;;9.80;1.80;;;22.90;99.90;;;;;;5068110;28;20114;-70
2022/08/26 11:27:40;;;;;;;3.65;1.40;;;22.90;99.90;;;;;;5074085;28;20480;-70
2022/08/26 11:30:12;;;;;;;7.07;2.33;;;22.90;99.90;;;;;;5060571;28;20460;-69
2022/08/26 11:32:37;;;;;;;5.28;1.70;;;23.00;99.90;;;;;;5073819;28;20056;-71
2022/08/26 11:35:25;;;;;;;7.65;1.58;;;22.90;99.90;;;;;;5050537;28;20090;-71
2022/08/26 11:37:56;;;;;;;5.90;1.67;;;22.80;99.90;;;;;;5038985;28;20056;-70
2022/08/26 11:40:34;;;;;;;4.40;1.60;;;22.60;99.90;;;;;;5073336;28;20056;-71
2022/08/26 11:43:06;;;;;;;6.63;1.77;;;22.40;99.90;;;;;;5057805;28;20091;-71
2022/08/26 11:45:43;;;;;;;10.88;2.72;;;22.40;99.90;;;;;;5073673;28;20353;-71
2022/08/26 11:48:17;;;;;;;6.82;1.90;;;22.30;99.90;;;;;;5074333;28;20044;-71
2022/08/26 11:51:12;;;;;;;5.75;1.52;;;22.30;99.90;;;;;;5058797;28;20516;-71
2022/08/26 11:53:41;;;;;;;7.75;1.92;;;22.30;99.90;;;;;;5065763;28;20052;-70
2022/08/26 11:56:11;;;;;;;9.75;3.00;;;22.30;99.90;;;;;;5073711;28;20050;-70
2022/08/26 11:58:42;;;;;;;6.88;2.03;;;22.20;99.90;;;;;;5060594;28;20065;-72
2022/08/26 12:01:09;;;;;;;5.68;2.15;;;22.20;99.90;;;;;;5043333;28;20098;-71
2022/08/26 12:03:35;;;;;;;8.63;2.00;;;22.20;99.90;;;;;;5056176;28;20037;-70
2022/08/26 12:06:01;;;;;;;8.30;2.00;;;22.40;99.90;;;;;;5073563;28;20357;-71
2022/08/26 12:08:31;;;;;;;11.80;2.03;;;22.60;99.90;;;;;;5054339;28;20047;-70
2022/08/26 12:11:10;;;;;;;9.52;2.35;;;22.80;99.90;;;;;;5074321;28;20068;-72
2022/08/26 12:13:37;;;;;;;3.67;1.75;;;22.80;99.90;;;;;;5060434;28;20052;-71
2022/08/26 12:16:05;;;;;;;6.20;1.50;;;22.70;99.90;;;;;;5074403;28;20372;-70
2022/08/26 12:18:34;;;;;;;8.90;1.70;;;22.80;99.90;;;;;;5073923;28;20059;-70
2022/08/26 12:21:11;;;;;;;8.02;1.75;;;22.80;99.90;;;;;;5074000;28;20364;-70
2022/08/26 12:23:41;;;;;;;10.35;2.53;;;22.90;99.90;;;;;;5073756;28;20127;-70
2022/08/26 12:26:32;;;;;;;4.72;1.67;;;22.90;99.90;;;;;;5073675;28;20486;-69
2022/08/26 12:29:02;;;;;;;12.15;1.90;;;22.90;99.90;;;;;;5062388;28;20059;-70
2022/08/26 12:31:32;;;;;;;7.50;1.60;;;22.90;99.90;;;;;;5073674;28;20045;-70
2022/08/26 12:34:00;;;;;;;10.10;2.28;;;22.80;99.90;;;;;;5073665;28;20044;-69
2022/08/26 12:36:30;;;;;;;8.98;1.80;;;22.70;99.90;;;;;;5042967;28;20053;-69
2022/08/26 12:39:04;;;;;;;4.88;1.73;;;22.60;99.90;;;;;;5073954;28;20109;-70
2022/08/26 12:41:40;;;;;;;6.20;1.35;;;22.60;99.90;;;;;;5071177;28;20135;-70
2022/08/26 12:44:05;;;;;;;5.22;1.63;;;22.40;99.90;;;;;;5067548;28;20087;-70
2022/08/26 12:46:31;;;;;;;4.93;1.20;;;22.40;99.90;;;;;;5073815;28;20421;-71
2022/08/26 12:49:00;;;;;;;2.38;0.98;;;22.30;99.90;;;;;;5073867;28;20052;-70
2022/08/26 12:51:34;;;;;;;6.05;1.50;;;22.30;99.90;;;;;;5073259;28;20396;-70
2022/08/26 12:54:05;;;;;;;2.97;1.10;;;22.20;99.90;;;;;;5073247;28;20095;-71